sensor_id;sensor_type;location;lat;lon;timestamp;P1;durP1;ratioP1;P2;durP2;ratioP2
76550;SDS011;68768;53.156;18.164;2024-02-23T00:01:12;12.30;;;6.40;;
76550;SDS011;68768;53.156;18.164;2024-02-23T00:03:39;11.40;;;6.00;;
76550;SDS011;68768;53.156;18.164;2024-02-23T00:06:06;11.30;;;6.20;;
76550;SDS011;68768;53.156;18.164;2024-02-23T00:08:35;10.80;;;6.10;;
76550;SDS011;68768;53.156;18.164;2024-02-23T00:11:02;12.10;;;6.40;;
76550;SDS011;68768;53.156;18.164;2024-02-23T00:13:29;10.30;;;6.40;;
76550;SDS011;68768;53.156;18.164;2024-02-23T00:15:56;10.10;;;6.00;;
76550;SDS011;68768;53.156;18.164;2024-02-23T00:18:23;10.80;;;6.10;;
76550;SDS011;68768;53.156;18.164;2024-02-23T00:20:50;11.20;;;6.10;;
76550;SDS011;68768;53.156;18.164;2024-02-23T00:23:17;9.70;;;6.30;;
76550;SDS011;68768;53.156;18.164;2024-02-23T00:25:45;11.20;;;5.80;;
76550;SDS011;68768;53.156;18.164;2024-02-23T00:28:12;12.60;;;7.00;;
76550;SDS011;68768;53.156;18.164;2024-02-23T00:30:39;11.50;;;6.40;;
76550;SDS011;68768;53.156;18.164;2024-02-23T00:33:06;11.50;;;6.50;;
76550;SDS011;68768;53.156;18.164;2024-02-23T00:35:33;12.70;;;6.20;;
76550;SDS011;68768;53.156;18.164;2024-02-23T00:38:00;11.30;;;6.20;;
76550;SDS011;68768;53.156;18.164;2024-02-23T00:40:27;10.00;;;6.10;;
76550;SDS011;68768;53.156;18.164;2024-02-23T00:42:54;11.00;;;6.70;;
76550;SDS011;68768;53.156;18.164;2024-02-23T00:45:21;10.80;;;6.60;;
76550;SDS011;68768;53.156;18.164;2024-02-23T00:47:48;12.90;;;7.10;;
76550;SDS011;68768;53.156;18.164;2024-02-23T00:50:15;11.50;;;6.70;;
76550;SDS011;68768;53.156;18.164;2024-02-23T00:52:42;13.00;;;7.20;;
76550;SDS011;68768;53.156;18.164;2024-02-23T00:55:09;10.60;;;6.20;;
76550;SDS011;68768;53.156;18.164;2024-02-23T00:57:37;11.10;;;6.60;;
76550;SDS011;68768;53.156;18.164;2024-02-23T01:00:05;11.60;;;6.80;;
76550;SDS011;68768;53.156;18.164;2024-02-23T01:02:32;10.80;;;6.30;;
76550;SDS011;68768;53.156;18.164;2024-02-23T01:04:59;12.20;;;6.40;;
76550;SDS011;68768;53.156;18.164;2024-02-23T01:07:26;12.60;;;6.90;;
76550;SDS011;68768;53.156;18.164;2024-02-23T01:09:53;13.30;;;6.90;;
76550;SDS011;68768;53.156;18.164;2024-02-23T01:12:20;12.00;;;6.50;;
76550;SDS011;68768;53.156;18.164;2024-02-23T01:14:47;11.90;;;6.40;;
76550;SDS011;68768;53.156;18.164;2024-02-23T01:17:15;12.00;;;6.50;;
76550;SDS011;68768;53.156;18.164;2024-02-23T01:19:42;10.90;;;6.70;;
76550;SDS011;68768;53.156;18.164;2024-02-23T01:22:10;11.40;;;5.90;;
76550;SDS011;68768;53.156;18.164;2024-02-23T01:24:37;11.30;;;6.90;;
76550;SDS011;68768;53.156;18.164;2024-02-23T01:27:04;10.40;;;6.30;;
76550;SDS011;68768;53.156;18.164;2024-02-23T01:29:38;13.30;;;6.50;;
76550;SDS011;68768;53.156;18.164;2024-02-23T01:32:07;11.00;;;6.30;;
76550;SDS011;68768;53.156;18.164;2024-02-23T01:34:34;10.10;;;6.60;;
76550;SDS011;68768;53.156;18.164;2024-02-23T01:37:01;10.40;;;5.80;;
76550;SDS011;68768;53.156;18.164;2024-02-23T01:39:28;11.30;;;6.10;;
76550;SDS011;68768;53.156;18.164;2024-02-23T01:41:55;10.30;;;6.40;;
76550;SDS011;68768;53.156;18.164;2024-02-23T01:44:22;11.60;;;6.40;;
76550;SDS011;68768;53.156;18.164;2024-02-23T01:46:49;12.20;;;6.70;;
76550;SDS011;68768;53.156;18.164;2024-02-23T01:49:17;13.10;;;6.30;;
76550;SDS011;68768;53.156;18.164;2024-02-23T01:51:44;10.20;;;6.20;;
76550;SDS011;68768;53.156;18.164;2024-02-23T01:54:11;9.90;;;6.40;;
76550;SDS011;68768;53.156;18.164;2024-02-23T01:56:38;12.40;;;6.50;;
76550;SDS011;68768;53.156;18.164;2024-02-23T01:59:06;10.30;;;5.90;;
76550;SDS011;68768;53.156;18.164;2024-02-23T02:01:37;12.50;;;6.30;;
76550;SDS011;68768;53.156;18.164;2024-02-23T02:04:04;10.40;;;6.50;;
76550;SDS011;68768;53.156;18.164;2024-02-23T02:06:31;9.20;;;5.90;;
76550;SDS011;68768;53.156;18.164;2024-02-23T02:08:58;12.40;;;5.90;;
76550;SDS011;68768;53.156;18.164;2024-02-23T02:11:25;11.60;;;6.10;;
76550;SDS011;68768;53.156;18.164;2024-02-23T02:13:52;10.80;;;6.60;;
76550;SDS011;68768;53.156;18.164;2024-02-23T02:16:19;9.00;;;6.30;;
76550;SDS011;68768;53.156;18.164;2024-02-23T02:18:45;13.70;;;6.50;;
76550;SDS011;68768;53.156;18.164;2024-02-23T02:21:12;10.60;;;5.70;;
76550;SDS011;68768;53.156;18.164;2024-02-23T02:23:39;10.20;;;5.90;;
76550;SDS011;68768;53.156;18.164;2024-02-23T02:26:06;9.70;;;5.90;;
76550;SDS011;68768;53.156;18.164;2024-02-23T02:28:34;11.50;;;5.60;;
76550;SDS011;68768;53.156;18.164;2024-02-23T02:31:01;10.90;;;5.70;;
76550;SDS011;68768;53.156;18.164;2024-02-23T02:33:27;11.30;;;5.40;;
76550;SDS011;68768;53.156;18.164;2024-02-23T02:35:54;10.60;;;6.30;;
76550;SDS011;68768;53.156;18.164;2024-02-23T02:38:21;9.60;;;5.70;;
76550;SDS011;68768;53.156;18.164;2024-02-23T02:40:48;9.60;;;5.00;;
76550;SDS011;68768;53.156;18.164;2024-02-23T02:43:15;9.10;;;5.30;;
76550;SDS011;68768;53.156;18.164;2024-02-23T02:45:42;9.50;;;5.10;;
76550;SDS011;68768;53.156;18.164;2024-02-23T02:48:09;7.60;;;5.20;;
76550;SDS011;68768;53.156;18.164;2024-02-23T02:50:36;8.10;;;5.10;;
76550;SDS011;68768;53.156;18.164;2024-02-23T02:53:02;8.50;;;5.10;;
76550;SDS011;68768;53.156;18.164;2024-02-23T02:55:29;9.00;;;5.20;;
76550;SDS011;68768;53.156;18.164;2024-02-23T02:57:56;10.70;;;5.10;;
76550;SDS011;68768;53.156;18.164;2024-02-23T03:00:23;9.50;;;5.60;;
76550;SDS011;68768;53.156;18.164;2024-02-23T03:02:50;10.10;;;4.90;;
76550;SDS011;68768;53.156;18.164;2024-02-23T03:05:17;7.20;;;4.30;;
76550;SDS011;68768;53.156;18.164;2024-02-23T03:07:44;8.10;;;5.00;;
76550;SDS011;68768;53.156;18.164;2024-02-23T03:10:11;8.20;;;4.80;;
76550;SDS011;68768;53.156;18.164;2024-02-23T03:12:38;7.00;;;4.40;;
76550;SDS011;68768;53.156;18.164;2024-02-23T03:15:06;8.30;;;4.80;;
76550;SDS011;68768;53.156;18.164;2024-02-23T03:17:33;6.60;;;4.40;;
76550;SDS011;68768;53.156;18.164;2024-02-23T03:20:00;8.80;;;4.80;;
76550;SDS011;68768;53.156;18.164;2024-02-23T03:22:28;7.90;;;4.70;;
76550;SDS011;68768;53.156;18.164;2024-02-23T03:24:54;10.00;;;5.00;;
76550;SDS011;68768;53.156;18.164;2024-02-23T03:27:26;6.40;;;3.70;;
76550;SDS011;68768;53.156;18.164;2024-02-23T03:29:55;7.00;;;4.00;;
76550;SDS011;68768;53.156;18.164;2024-02-23T03:32:22;6.60;;;3.70;;
76550;SDS011;68768;53.156;18.164;2024-02-23T03:34:49;8.80;;;3.80;;
76550;SDS011;68768;53.156;18.164;2024-02-23T03:37:16;7.30;;;4.10;;
76550;SDS011;68768;53.156;18.164;2024-02-23T03:39:43;6.40;;;3.90;;
76550;SDS011;68768;53.156;18.164;2024-02-23T03:42:10;6.60;;;3.60;;
76550;SDS011;68768;53.156;18.164;2024-02-23T03:44:37;4.90;;;3.30;;
76550;SDS011;68768;53.156;18.164;2024-02-23T03:47:04;5.40;;;3.60;;
76550;SDS011;68768;53.156;18.164;2024-02-23T03:49:31;5.40;;;3.40;;
76550;SDS011;68768;53.156;18.164;2024-02-23T03:51:58;6.70;;;3.70;;
76550;SDS011;68768;53.156;18.164;2024-02-23T03:54:25;6.40;;;3.70;;
76550;SDS011;68768;53.156;18.164;2024-02-23T03:56:52;6.00;;;3.30;;
76550;SDS011;68768;53.156;18.164;2024-02-23T03:59:19;6.50;;;3.70;;
76550;SDS011;68768;53.156;18.164;2024-02-23T04:01:45;6.00;;;3.50;;
76550;SDS011;68768;53.156;18.164;2024-02-23T04:04:12;8.60;;;3.90;;
76550;SDS011;68768;53.156;18.164;2024-02-23T04:06:39;6.30;;;3.70;;
76550;SDS011;68768;53.156;18.164;2024-02-23T04:09:06;6.50;;;3.00;;
76550;SDS011;68768;53.156;18.164;2024-02-23T04:11:35;6.30;;;3.60;;
76550;SDS011;68768;53.156;18.164;2024-02-23T04:14:02;6.40;;;3.50;;
76550;SDS011;68768;53.156;18.164;2024-02-23T04:16:29;5.60;;;3.60;;
76550;SDS011;68768;53.156;18.164;2024-02-23T04:18:56;7.20;;;3.30;;
76550;SDS011;68768;53.156;18.164;2024-02-23T04:21:23;6.50;;;3.40;;
76550;SDS011;68768;53.156;18.164;2024-02-23T04:23:50;6.80;;;3.40;;
76550;SDS011;68768;53.156;18.164;2024-02-23T04:26:18;6.60;;;3.70;;
76550;SDS011;68768;53.156;18.164;2024-02-23T04:28:45;7.20;;;3.20;;
76550;SDS011;68768;53.156;18.164;2024-02-23T04:31:12;7.70;;;4.40;;
76550;SDS011;68768;53.156;18.164;2024-02-23T04:33:39;7.50;;;3.50;;
76550;SDS011;68768;53.156;18.164;2024-02-23T04:36:06;5.10;;;3.30;;
76550;SDS011;68768;53.156;18.164;2024-02-23T04:38:36;5.90;;;2.90;;
76550;SDS011;68768;53.156;18.164;2024-02-23T04:41:03;7.60;;;3.00;;
76550;SDS011;68768;53.156;18.164;2024-02-23T04:43:31;5.70;;;3.10;;
76550;SDS011;68768;53.156;18.164;2024-02-23T04:45:59;7.20;;;3.20;;
76550;SDS011;68768;53.156;18.164;2024-02-23T04:48:26;3.90;;;2.60;;
76550;SDS011;68768;53.156;18.164;2024-02-23T04:50:53;5.60;;;2.80;;
76550;SDS011;68768;53.156;18.164;2024-02-23T04:53:20;7.30;;;2.60;;
76550;SDS011;68768;53.156;18.164;2024-02-23T04:55:47;4.90;;;2.60;;
76550;SDS011;68768;53.156;18.164;2024-02-23T04:58:14;6.00;;;2.80;;
76550;SDS011;68768;53.156;18.164;2024-02-23T05:00:42;5.60;;;2.80;;
76550;SDS011;68768;53.156;18.164;2024-02-23T05:03:09;7.10;;;3.10;;
76550;SDS011;68768;53.156;18.164;2024-02-23T05:05:36;6.70;;;3.00;;
76550;SDS011;68768;53.156;18.164;2024-02-23T05:08:03;7.10;;;2.70;;
76550;SDS011;68768;53.156;18.164;2024-02-23T05:10:30;5.00;;;2.70;;
76550;SDS011;68768;53.156;18.164;2024-02-23T05:12:57;4.80;;;2.10;;
76550;SDS011;68768;53.156;18.164;2024-02-23T05:15:24;6.30;;;2.60;;
76550;SDS011;68768;53.156;18.164;2024-02-23T05:17:51;6.50;;;2.70;;
76550;SDS011;68768;53.156;18.164;2024-02-23T05:20:18;5.70;;;2.80;;
76550;SDS011;68768;53.156;18.164;2024-02-23T05:22:45;5.10;;;2.30;;
76550;SDS011;68768;53.156;18.164;2024-02-23T05:25:12;5.50;;;2.40;;
76550;SDS011;68768;53.156;18.164;2024-02-23T05:27:39;4.50;;;2.20;;
76550;SDS011;68768;53.156;18.164;2024-02-23T05:30:06;4.20;;;2.00;;
76550;SDS011;68768;53.156;18.164;2024-02-23T05:32:34;3.50;;;1.80;;
76550;SDS011;68768;53.156;18.164;2024-02-23T05:35:00;3.40;;;1.80;;
76550;SDS011;68768;53.156;18.164;2024-02-23T05:37:28;6.50;;;2.50;;
76550;SDS011;68768;53.156;18.164;2024-02-23T05:39:55;4.20;;;1.90;;
76550;SDS011;68768;53.156;18.164;2024-02-23T05:42:22;3.50;;;1.60;;
76550;SDS011;68768;53.156;18.164;2024-02-23T05:44:49;3.90;;;2.20;;
76550;SDS011;68768;53.156;18.164;2024-02-23T05:47:16;3.90;;;2.50;;
76550;SDS011;68768;53.156;18.164;2024-02-23T05:49:44;5.30;;;2.50;;
76550;SDS011;68768;53.156;18.164;2024-02-23T05:52:11;4.40;;;2.60;;
76550;SDS011;68768;53.156;18.164;2024-02-23T05:54:37;2.50;;;1.70;;
76550;SDS011;68768;53.156;18.164;2024-02-23T05:57:04;6.10;;;1.70;;
76550;SDS011;68768;53.156;18.164;2024-02-23T05:59:31;3.00;;;1.80;;
76550;SDS011;68768;53.156;18.164;2024-02-23T06:01:58;2.70;;;1.90;;
76550;SDS011;68768;53.156;18.164;2024-02-23T06:04:25;5.80;;;2.40;;
76550;SDS011;68768;53.156;18.164;2024-02-23T06:06:53;3.00;;;1.60;;
76550;SDS011;68768;53.156;18.164;2024-02-23T06:09:20;3.00;;;1.60;;
76550;SDS011;68768;53.156;18.164;2024-02-23T06:11:48;2.60;;;1.70;;
76550;SDS011;68768;53.156;18.164;2024-02-23T06:14:15;3.70;;;1.90;;
76550;SDS011;68768;53.156;18.164;2024-02-23T06:16:42;4.50;;;2.30;;
76550;SDS011;68768;53.156;18.164;2024-02-23T06:19:09;7.00;;;3.00;;
76550;SDS011;68768;53.156;18.164;2024-02-23T06:21:36;8.40;;;3.40;;
76550;SDS011;68768;53.156;18.164;2024-02-23T06:24:03;10.10;;;3.50;;
76550;SDS011;68768;53.156;18.164;2024-02-23T06:26:31;7.50;;;3.70;;
76550;SDS011;68768;53.156;18.164;2024-02-23T06:28:58;5.20;;;2.70;;
76550;SDS011;68768;53.156;18.164;2024-02-23T06:31:25;6.30;;;3.40;;
76550;SDS011;68768;53.156;18.164;2024-02-23T06:33:52;6.50;;;3.20;;
76550;SDS011;68768;53.156;18.164;2024-02-23T06:36:19;6.00;;;2.60;;
76550;SDS011;68768;53.156;18.164;2024-02-23T06:38:46;5.00;;;2.60;;
76550;SDS011;68768;53.156;18.164;2024-02-23T06:41:13;5.50;;;2.60;;
76550;SDS011;68768;53.156;18.164;2024-02-23T06:43:40;5.40;;;2.50;;
76550;SDS011;68768;53.156;18.164;2024-02-23T06:46:07;4.00;;;2.40;;
76550;SDS011;68768;53.156;18.164;2024-02-23T06:48:35;3.90;;;1.90;;
76550;SDS011;68768;53.156;18.164;2024-02-23T06:51:06;2.10;;;1.50;;
76550;SDS011;68768;53.156;18.164;2024-02-23T06:53:38;3.50;;;1.20;;
76550;SDS011;68768;53.156;18.164;2024-02-23T06:56:05;1.80;;;1.20;;
76550;SDS011;68768;53.156;18.164;2024-02-23T06:58:32;1.90;;;1.20;;
76550;SDS011;68768;53.156;18.164;2024-02-23T07:00:59;1.80;;;1.20;;
76550;SDS011;68768;53.156;18.164;2024-02-23T07:03:27;1.60;;;1.10;;
76550;SDS011;68768;53.156;18.164;2024-02-23T07:05:54;1.90;;;0.90;;
76550;SDS011;68768;53.156;18.164;2024-02-23T07:08:21;1.00;;;0.90;;
76550;SDS011;68768;53.156;18.164;2024-02-23T07:10:48;1.70;;;1.40;;
76550;SDS011;68768;53.156;18.164;2024-02-23T07:13:16;1.40;;;0.80;;
76550;SDS011;68768;53.156;18.164;2024-02-23T07:15:44;1.80;;;0.80;;
76550;SDS011;68768;53.156;18.164;2024-02-23T07:18:11;2.20;;;0.60;;
76550;SDS011;68768;53.156;18.164;2024-02-23T07:20:38;1.00;;;0.60;;
76550;SDS011;68768;53.156;18.164;2024-02-23T07:23:05;2.00;;;0.70;;
76550;SDS011;68768;53.156;18.164;2024-02-23T07:25:33;1.50;;;0.90;;
76550;SDS011;68768;53.156;18.164;2024-02-23T07:28:00;1.80;;;1.00;;
76550;SDS011;68768;53.156;18.164;2024-02-23T07:30:27;3.90;;;0.70;;
76550;SDS011;68768;53.156;18.164;2024-02-23T07:32:53;1.80;;;1.10;;
76550;SDS011;68768;53.156;18.164;2024-02-23T07:35:20;1.20;;;0.70;;
76550;SDS011;68768;53.156;18.164;2024-02-23T07:37:47;1.50;;;0.70;;
76550;SDS011;68768;53.156;18.164;2024-02-23T07:40:15;3.10;;;0.80;;
76550;SDS011;68768;53.156;18.164;2024-02-23T07:42:42;1.70;;;0.80;;
76550;SDS011;68768;53.156;18.164;2024-02-23T07:45:09;2.00;;;0.70;;
76550;SDS011;68768;53.156;18.164;2024-02-23T07:47:37;1.60;;;0.60;;
76550;SDS011;68768;53.156;18.164;2024-02-23T07:50:04;1.60;;;0.50;;
76550;SDS011;68768;53.156;18.164;2024-02-23T07:52:31;1.60;;;0.80;;
76550;SDS011;68768;53.156;18.164;2024-02-23T07:54:58;2.20;;;0.90;;
76550;SDS011;68768;53.156;18.164;2024-02-23T07:57:27;0.60;;;0.50;;
76550;SDS011;68768;53.156;18.164;2024-02-23T07:59:54;0.80;;;0.50;;
76550;SDS011;68768;53.156;18.164;2024-02-23T08:02:21;3.90;;;0.60;;
76550;SDS011;68768;53.156;18.164;2024-02-23T08:04:48;2.40;;;0.40;;
76550;SDS011;68768;53.156;18.164;2024-02-23T08:07:19;1.60;;;0.30;;
76550;SDS011;68768;53.156;18.164;2024-02-23T08:09:47;0.50;;;0.20;;
76550;SDS011;68768;53.156;18.164;2024-02-23T08:12:14;0.90;;;0.40;;
76550;SDS011;68768;53.156;18.164;2024-02-23T08:14:42;2.50;;;0.50;;
76550;SDS011;68768;53.156;18.164;2024-02-23T08:17:10;1.60;;;0.40;;
76550;SDS011;68768;53.156;18.164;2024-02-23T08:19:37;0.40;;;0.40;;
76550;SDS011;68768;53.156;18.164;2024-02-23T08:22:05;0.90;;;0.30;;
76550;SDS011;68768;53.156;18.164;2024-02-23T08:24:32;0.30;;;0.30;;
76550;SDS011;68768;53.156;18.164;2024-02-23T08:26:59;0.30;;;0.30;;
76550;SDS011;68768;53.156;18.164;2024-02-23T08:29:26;2.50;;;0.70;;
76550;SDS011;68768;53.156;18.164;2024-02-23T08:31:54;1.90;;;0.60;;
76550;SDS011;68768;53.156;18.164;2024-02-23T08:34:21;1.20;;;0.50;;
76550;SDS011;68768;53.156;18.164;2024-02-23T08:36:48;1.60;;;0.70;;
76550;SDS011;68768;53.156;18.164;2024-02-23T08:39:16;2.00;;;0.80;;
76550;SDS011;68768;53.156;18.164;2024-02-23T08:41:43;2.40;;;0.60;;
76550;SDS011;68768;53.156;18.164;2024-02-23T08:44:10;1.20;;;0.60;;
76550;SDS011;68768;53.156;18.164;2024-02-23T08:46:38;2.60;;;0.70;;
76550;SDS011;68768;53.156;18.164;2024-02-23T08:49:06;1.70;;;0.50;;
76550;SDS011;68768;53.156;18.164;2024-02-23T08:51:33;2.70;;;0.60;;
76550;SDS011;68768;53.156;18.164;2024-02-23T08:54:00;1.80;;;0.80;;
76550;SDS011;68768;53.156;18.164;2024-02-23T08:56:36;5.60;;;0.80;;
76550;SDS011;68768;53.156;18.164;2024-02-23T08:59:04;1.10;;;0.50;;
76550;SDS011;68768;53.156;18.164;2024-02-23T09:01:32;2.00;;;0.80;;
76550;SDS011;68768;53.156;18.164;2024-02-23T09:03:59;1.00;;;0.60;;
76550;SDS011;68768;53.156;18.164;2024-02-23T09:06:26;1.20;;;0.50;;
76550;SDS011;68768;53.156;18.164;2024-02-23T09:08:53;5.10;;;1.10;;
76550;SDS011;68768;53.156;18.164;2024-02-23T09:11:24;5.60;;;2.00;;
76550;SDS011;68768;53.156;18.164;2024-02-23T09:13:51;7.80;;;1.90;;
76550;SDS011;68768;53.156;18.164;2024-02-23T09:16:18;2.60;;;0.80;;
76550;SDS011;68768;53.156;18.164;2024-02-23T09:18:45;3.00;;;1.30;;
76550;SDS011;68768;53.156;18.164;2024-02-23T09:21:12;6.30;;;2.00;;
76550;SDS011;68768;53.156;18.164;2024-02-23T09:23:39;4.70;;;1.80;;
76550;SDS011;68768;53.156;18.164;2024-02-23T09:26:10;5.70;;;2.10;;
76550;SDS011;68768;53.156;18.164;2024-02-23T09:28:40;3.30;;;1.30;;
76550;SDS011;68768;53.156;18.164;2024-02-23T09:31:08;3.00;;;1.50;;
76550;SDS011;68768;53.156;18.164;2024-02-23T09:33:35;2.40;;;1.00;;
76550;SDS011;68768;53.156;18.164;2024-02-23T09:36:02;4.50;;;1.10;;
76550;SDS011;68768;53.156;18.164;2024-02-23T09:38:29;10.60;;;4.20;;
76550;SDS011;68768;53.156;18.164;2024-02-23T09:40:58;8.60;;;2.90;;
76550;SDS011;68768;53.156;18.164;2024-02-23T09:43:28;10.80;;;3.40;;
76550;SDS011;68768;53.156;18.164;2024-02-23T09:45:56;7.00;;;2.40;;
76550;SDS011;68768;53.156;18.164;2024-02-23T09:48:24;7.30;;;2.00;;
76550;SDS011;68768;53.156;18.164;2024-02-23T09:50:52;5.90;;;1.70;;
76550;SDS011;68768;53.156;18.164;2024-02-23T09:53:19;3.40;;;1.40;;
76550;SDS011;68768;53.156;18.164;2024-02-23T09:55:48;3.60;;;1.80;;
76550;SDS011;68768;53.156;18.164;2024-02-23T09:58:17;8.10;;;3.00;;
76550;SDS011;68768;53.156;18.164;2024-02-23T10:00:47;3.20;;;1.60;;
76550;SDS011;68768;53.156;18.164;2024-02-23T10:03:14;4.10;;;1.90;;
76550;SDS011;68768;53.156;18.164;2024-02-23T10:05:41;1.90;;;0.90;;
76550;SDS011;68768;53.156;18.164;2024-02-23T10:08:10;2.00;;;0.90;;
76550;SDS011;68768;53.156;18.164;2024-02-23T10:10:36;3.30;;;1.00;;
76550;SDS011;68768;53.156;18.164;2024-02-23T10:13:04;2.60;;;1.10;;
76550;SDS011;68768;53.156;18.164;2024-02-23T10:15:31;4.10;;;1.10;;
76550;SDS011;68768;53.156;18.164;2024-02-23T10:17:58;1.60;;;0.90;;
76550;SDS011;68768;53.156;18.164;2024-02-23T10:20:25;4.70;;;1.00;;
76550;SDS011;68768;53.156;18.164;2024-02-23T10:22:53;1.50;;;0.60;;
76550;SDS011;68768;53.156;18.164;2024-02-23T10:25:20;1.30;;;0.60;;
76550;SDS011;68768;53.156;18.164;2024-02-23T10:27:47;4.90;;;0.90;;
76550;SDS011;68768;53.156;18.164;2024-02-23T10:30:15;2.60;;;0.60;;
76550;SDS011;68768;53.156;18.164;2024-02-23T10:32:42;1.20;;;0.50;;
76550;SDS011;68768;53.156;18.164;2024-02-23T10:35:15;1.30;;;0.60;;
76550;SDS011;68768;53.156;18.164;2024-02-23T10:37:43;1.70;;;0.50;;
76550;SDS011;68768;53.156;18.164;2024-02-23T10:40:12;0.70;;;0.40;;
76550;SDS011;68768;53.156;18.164;2024-02-23T10:42:40;1.10;;;0.50;;
76550;SDS011;68768;53.156;18.164;2024-02-23T10:45:15;0.60;;;0.30;;
76550;SDS011;68768;53.156;18.164;2024-02-23T10:47:43;1.90;;;0.40;;
76550;SDS011;68768;53.156;18.164;2024-02-23T10:50:11;1.00;;;0.40;;
76550;SDS011;68768;53.156;18.164;2024-02-23T10:52:42;1.10;;;0.30;;
76550;SDS011;68768;53.156;18.164;2024-02-23T10:55:09;1.30;;;0.40;;
76550;SDS011;68768;53.156;18.164;2024-02-23T10:57:36;2.40;;;0.40;;
76550;SDS011;68768;53.156;18.164;2024-02-23T11:00:05;0.80;;;0.30;;
76550;SDS011;68768;53.156;18.164;2024-02-23T11:02:38;0.30;;;0.30;;
76550;SDS011;68768;53.156;18.164;2024-02-23T11:05:14;2.00;;;0.40;;
76550;SDS011;68768;53.156;18.164;2024-02-23T11:07:42;1.10;;;0.30;;
76550;SDS011;68768;53.156;18.164;2024-02-23T11:10:13;0.50;;;0.30;;
76550;SDS011;68768;53.156;18.164;2024-02-23T11:12:40;1.80;;;0.40;;
76550;SDS011;68768;53.156;18.164;2024-02-23T11:15:07;1.40;;;0.40;;
76550;SDS011;68768;53.156;18.164;2024-02-23T11:17:35;1.50;;;0.30;;
76550;SDS011;68768;53.156;18.164;2024-02-23T11:20:05;0.70;;;0.30;;
76550;SDS011;68768;53.156;18.164;2024-02-23T11:22:34;0.50;;;0.30;;
76550;SDS011;68768;53.156;18.164;2024-02-23T11:25:05;2.50;;;0.90;;
76550;SDS011;68768;53.156;18.164;2024-02-23T11:27:37;3.10;;;1.50;;
76550;SDS011;68768;53.156;18.164;2024-02-23T11:35:20;0.40;;;0.20;;
76550;SDS011;68768;53.156;18.164;2024-02-23T11:37:56;1.90;;;0.30;;
76550;SDS011;68768;53.156;18.164;2024-02-23T11:40:27;0.70;;;0.40;;
76550;SDS011;68768;53.156;18.164;2024-02-23T11:42:55;0.60;;;0.30;;
76550;SDS011;68768;53.156;18.164;2024-02-23T11:45:25;0.90;;;0.50;;
76550;SDS011;68768;53.156;18.164;2024-02-23T11:47:54;1.30;;;0.50;;
76550;SDS011;68768;53.156;18.164;2024-02-23T11:50:21;0.70;;;0.40;;
76550;SDS011;68768;53.156;18.164;2024-02-23T11:52:48;1.10;;;0.50;;
76550;SDS011;68768;53.156;18.164;2024-02-23T11:55:18;1.20;;;0.40;;
76550;SDS011;68768;53.156;18.164;2024-02-23T11:57:49;2.40;;;0.70;;
76550;SDS011;68768;53.156;18.164;2024-02-23T12:00:17;0.60;;;0.40;;
76550;SDS011;68768;53.156;18.164;2024-02-23T12:02:44;2.00;;;0.50;;
76550;SDS011;68768;53.156;18.164;2024-02-23T12:05:16;3.60;;;0.50;;
76550;SDS011;68768;53.156;18.164;2024-02-23T12:07:43;1.60;;;0.50;;
76550;SDS011;68768;53.156;18.164;2024-02-23T12:10:10;0.80;;;0.60;;
76550;SDS011;68768;53.156;18.164;2024-02-23T12:12:38;1.00;;;0.50;;
76550;SDS011;68768;53.156;18.164;2024-02-23T12:15:05;1.30;;;0.70;;
76550;SDS011;68768;53.156;18.164;2024-02-23T12:17:35;3.40;;;0.60;;
76550;SDS011;68768;53.156;18.164;2024-02-23T12:20:03;0.90;;;0.70;;
76550;SDS011;68768;53.156;18.164;2024-02-23T12:22:34;1.20;;;0.40;;
76550;SDS011;68768;53.156;18.164;2024-02-23T12:25:00;0.90;;;0.30;;
76550;SDS011;68768;53.156;18.164;2024-02-23T12:27:29;1.10;;;0.50;;
76550;SDS011;68768;53.156;18.164;2024-02-23T12:29:57;0.70;;;0.40;;
76550;SDS011;68768;53.156;18.164;2024-02-23T12:32:24;2.10;;;0.60;;
76550;SDS011;68768;53.156;18.164;2024-02-23T12:34:52;1.70;;;0.40;;
76550;SDS011;68768;53.156;18.164;2024-02-23T12:37:19;2.70;;;0.50;;
76550;SDS011;68768;53.156;18.164;2024-02-23T12:39:46;0.70;;;0.40;;
76550;SDS011;68768;53.156;18.164;2024-02-23T12:42:13;1.20;;;0.50;;
76550;SDS011;68768;53.156;18.164;2024-02-23T12:44:40;4.40;;;0.50;;
76550;SDS011;68768;53.156;18.164;2024-02-23T12:47:07;4.10;;;0.50;;
76550;SDS011;68768;53.156;18.164;2024-02-23T12:49:34;1.40;;;0.50;;
76550;SDS011;68768;53.156;18.164;2024-02-23T12:52:01;1.90;;;0.60;;
76550;SDS011;68768;53.156;18.164;2024-02-23T12:54:28;1.90;;;0.70;;
76550;SDS011;68768;53.156;18.164;2024-02-23T12:56:55;3.90;;;0.80;;
76550;SDS011;68768;53.156;18.164;2024-02-23T12:59:23;1.80;;;0.60;;
76550;SDS011;68768;53.156;18.164;2024-02-23T13:01:50;1.70;;;0.60;;
76550;SDS011;68768;53.156;18.164;2024-02-23T13:04:17;1.90;;;0.50;;
76550;SDS011;68768;53.156;18.164;2024-02-23T13:06:44;3.70;;;0.80;;
76550;SDS011;68768;53.156;18.164;2024-02-23T13:09:12;1.60;;;0.70;;
76550;SDS011;68768;53.156;18.164;2024-02-23T13:11:41;2.60;;;1.00;;
76550;SDS011;68768;53.156;18.164;2024-02-23T13:14:08;3.30;;;0.60;;
76550;SDS011;68768;53.156;18.164;2024-02-23T13:16:36;2.10;;;0.80;;
76550;SDS011;68768;53.156;18.164;2024-02-23T13:19:03;4.60;;;1.00;;
76550;SDS011;68768;53.156;18.164;2024-02-23T13:21:30;5.50;;;1.00;;
76550;SDS011;68768;53.156;18.164;2024-02-23T13:23:58;1.00;;;0.60;;
76550;SDS011;68768;53.156;18.164;2024-02-23T13:26:25;1.10;;;0.50;;
76550;SDS011;68768;53.156;18.164;2024-02-23T13:28:52;2.10;;;0.70;;
76550;SDS011;68768;53.156;18.164;2024-02-23T13:31:19;1.80;;;0.70;;
76550;SDS011;68768;53.156;18.164;2024-02-23T13:33:46;2.00;;;0.80;;
76550;SDS011;68768;53.156;18.164;2024-02-23T13:36:13;1.10;;;0.60;;
76550;SDS011;68768;53.156;18.164;2024-02-23T13:38:41;2.20;;;0.70;;
76550;SDS011;68768;53.156;18.164;2024-02-23T13:41:08;1.00;;;0.60;;
76550;SDS011;68768;53.156;18.164;2024-02-23T13:43:35;1.60;;;0.80;;
76550;SDS011;68768;53.156;18.164;2024-02-23T13:46:02;1.50;;;0.70;;
76550;SDS011;68768;53.156;18.164;2024-02-23T13:48:30;4.40;;;0.80;;
76550;SDS011;68768;53.156;18.164;2024-02-23T13:50:57;1.90;;;0.60;;
76550;SDS011;68768;53.156;18.164;2024-02-23T13:53:30;1.80;;;0.90;;
76550;SDS011;68768;53.156;18.164;2024-02-23T13:55:58;1.40;;;0.60;;
76550;SDS011;68768;53.156;18.164;2024-02-23T13:58:25;1.70;;;0.80;;
76550;SDS011;68768;53.156;18.164;2024-02-23T14:00:52;3.10;;;0.80;;
76550;SDS011;68768;53.156;18.164;2024-02-23T14:03:19;2.10;;;0.80;;
76550;SDS011;68768;53.156;18.164;2024-02-23T14:05:46;3.60;;;1.10;;
76550;SDS011;68768;53.156;18.164;2024-02-23T14:08:13;5.60;;;2.10;;
76550;SDS011;68768;53.156;18.164;2024-02-23T14:10:40;3.80;;;1.20;;
76550;SDS011;68768;53.156;18.164;2024-02-23T14:13:09;3.50;;;0.90;;
76550;SDS011;68768;53.156;18.164;2024-02-23T14:15:36;2.90;;;1.00;;
76550;SDS011;68768;53.156;18.164;2024-02-23T14:18:03;4.60;;;2.50;;
76550;SDS011;68768;53.156;18.164;2024-02-23T14:20:31;4.80;;;1.30;;
76550;SDS011;68768;53.156;18.164;2024-02-23T14:22:58;3.50;;;1.40;;
76550;SDS011;68768;53.156;18.164;2024-02-23T14:25:25;4.50;;;1.50;;
76550;SDS011;68768;53.156;18.164;2024-02-23T14:27:52;3.30;;;1.00;;
76550;SDS011;68768;53.156;18.164;2024-02-23T14:30:19;6.40;;;1.70;;
76550;SDS011;68768;53.156;18.164;2024-02-23T14:32:47;2.60;;;1.50;;
76550;SDS011;68768;53.156;18.164;2024-02-23T14:35:14;3.70;;;1.60;;
76550;SDS011;68768;53.156;18.164;2024-02-23T14:37:41;3.70;;;1.80;;
76550;SDS011;68768;53.156;18.164;2024-02-23T14:40:08;5.90;;;2.10;;